createdAt,value
2018-08-04T00:04:00.039Z,14.10
2018-08-04T00:09:04.947Z,14.70
2018-08-04T00:14:09.491Z,14.10
2018-08-04T00:19:13.041Z,14.60
2018-08-04T00:24:16.582Z,13.67
2018-08-04T00:29:20.898Z,14.53
2018-08-04T00:34:24.429Z,14.60
2018-08-04T00:39:27.963Z,14.17
2018-08-04T00:44:31.521Z,13.90
2018-08-04T00:49:35.110Z,15.30
2018-08-04T00:54:39.600Z,14.20
2018-08-04T00:59:51.430Z,14.27
2018-08-04T01:04:54.983Z,14.73
2018-08-04T01:10:01.443Z,15.13
2018-08-04T01:15:05.266Z,14.50
2018-08-04T01:20:08.911Z,14.10
2018-08-04T01:25:12.474Z,15.77
2018-08-04T01:30:16.543Z,16.47
2018-08-04T01:35:20.077Z,18.77
2018-08-04T01:40:23.956Z,20.57
2018-08-04T01:45:28.140Z,22.13
2018-08-04T01:50:32.525Z,18.13
2018-08-04T01:55:36.091Z,19.47
2018-08-04T02:00:40.469Z,21.80
2018-08-04T02:05:44.024Z,23.10
2018-08-04T02:10:47.950Z,21.70
2018-08-04T02:15:51.487Z,19.70
2018-08-04T02:20:55.727Z,19.10
2018-08-04T02:25:59.867Z,19.70
2018-08-04T02:31:03.508Z,20.80
2018-08-04T02:36:07.098Z,21.07
2018-08-04T02:41:11.015Z,20.87
2018-08-04T02:46:14.735Z,20.87
2018-08-04T02:51:18.319Z,23.23
2018-08-04T02:56:25.315Z,21.90
2018-08-04T03:01:29.295Z,22.07
2018-08-04T03:06:32.830Z,21.70
2018-08-04T03:11:36.434Z,21.00
2018-08-04T03:16:40.251Z,21.10
2018-08-04T03:21:43.826Z,22.07
2018-08-04T03:26:47.486Z,20.63
2018-08-04T03:31:51.879Z,21.53
2018-08-04T03:36:55.478Z,21.00
2018-08-04T03:41:59.056Z,21.73
2018-08-04T03:47:02.695Z,21.27
2018-08-04T03:52:06.242Z,20.53
2018-08-04T03:57:09.913Z,21.30
2018-08-04T04:02:13.477Z,19.20
2018-08-04T04:07:17.950Z,20.03
2018-08-04T04:12:21.498Z,21.07
2018-08-04T04:17:25.268Z,20.43
2018-08-04T04:22:28.834Z,21.57
2018-08-04T04:27:32.371Z,20.60
2018-08-04T04:32:35.896Z,19.90
2018-08-04T04:37:39.461Z,20.53
2018-08-04T04:42:43.008Z,19.47
2018-08-04T04:47:46.592Z,18.77
2018-08-04T04:52:51.659Z,18.83
2018-08-04T04:57:55.330Z,18.27
2018-08-04T05:02:58.919Z,19.23
2018-08-04T05:08:02.600Z,18.20
2018-08-04T05:13:07.707Z,19.10
2018-08-04T05:18:11.342Z,17.80
2018-08-04T05:23:15.044Z,18.30
2018-08-04T05:28:19.331Z,17.23
2018-08-04T05:33:22.904Z,18.40
2018-08-04T05:38:26.460Z,18.80
2018-08-04T05:43:30.072Z,19.57
2018-08-04T05:48:33.603Z,19.73
2018-08-04T05:53:38.152Z,20.43
2018-08-04T05:58:41.720Z,21.77
2018-08-04T06:03:45.340Z,20.00
2018-08-04T06:08:48.894Z,19.73
2018-08-04T06:13:52.454Z,20.03
2018-08-04T06:18:56.086Z,21.20
2018-08-04T06:24:00.523Z,20.30
2018-08-04T06:29:04.663Z,19.63
2018-08-04T06:34:08.269Z,21.20
2018-08-04T06:39:11.902Z,20.70
2018-08-04T06:44:16.055Z,18.43
2018-08-04T06:49:19.643Z,19.63
2018-08-04T06:54:23.609Z,20.50
2018-08-04T06:59:28.891Z,19.60
2018-08-04T07:04:33.128Z,18.80
2018-08-04T07:14:51.751Z,19.10
2018-08-04T07:19:55.267Z,20.80
2018-08-04T07:24:58.863Z,21.53
2018-08-04T07:30:07.847Z,19.77
2018-08-04T07:35:11.454Z,18.77
2018-08-04T07:40:15.202Z,18.20
2018-08-04T07:45:19.448Z,19.43
2018-08-04T07:50:22.996Z,21.07
2018-08-04T07:55:26.602Z,19.40
2018-08-04T08:00:30.167Z,17.80
2018-08-04T08:05:33.719Z,18.77
2018-08-04T08:10:37.634Z,17.63
2018-08-04T08:15:41.112Z,17.93
2018-08-04T08:20:44.675Z,17.17
2018-08-04T08:25:59.315Z,17.17
2018-08-04T08:31:03.187Z,16.93
2018-08-04T08:36:07.272Z,15.90
2018-08-04T08:41:11.125Z,14.60
2018-08-04T08:46:14.731Z,16.23
2018-08-04T08:51:18.306Z,17.03
2018-08-04T08:56:21.874Z,14.90
2018-08-04T09:01:25.606Z,16.57
2018-08-04T09:06:29.206Z,14.87
2018-08-04T09:11:32.790Z,15.57
2018-08-04T09:16:36.332Z,13.13
2018-08-04T09:21:40.847Z,12.67
2018-08-04T09:26:44.403Z,13.50
2018-08-04T09:31:47.963Z,14.03
2018-08-04T09:36:51.516Z,15.50
2018-08-04T09:41:55.400Z,15.20
2018-08-04T09:46:59.339Z,14.80
2018-08-04T09:52:02.875Z,15.30
2018-08-04T09:57:07.363Z,14.80
2018-08-04T10:02:12.983Z,14.80
2018-08-04T10:07:16.543Z,13.17
2018-08-04T10:12:20.339Z,13.83
2018-08-04T10:17:23.881Z,12.50
2018-08-04T10:22:27.682Z,12.20
2018-08-04T10:27:31.235Z,11.70
2018-08-04T10:32:35.188Z,11.93
2018-08-04T10:37:38.939Z,11.60
2018-08-04T10:42:42.506Z,10.30
2018-08-04T10:47:46.103Z,10.67
2018-08-04T10:52:49.738Z,10.27
2018-08-04T10:57:53.299Z,9.80
2018-08-04T11:02:56.853Z,10.40
2018-08-04T11:08:00.673Z,8.30
2018-08-04T11:13:04.288Z,7.20
2018-08-04T11:18:08.713Z,9.50
2018-08-04T11:23:13.687Z,10.10
2018-08-04T11:28:17.531Z,9.97
2018-08-04T11:33:22.515Z,8.90
2018-08-04T11:38:26.146Z,9.23
2018-08-04T11:43:29.746Z,9.47
2018-08-04T11:48:33.328Z,8.03
2018-08-04T11:53:36.554Z,10.53
2018-08-04T11:58:40.139Z,8.60
2018-08-04T12:03:44.219Z,9.20
2018-08-04T12:08:48.047Z,8.63
2018-08-04T12:13:51.785Z,7.73
2018-08-04T12:18:55.371Z,7.50
2018-08-04T12:23:58.922Z,7.70
2018-08-04T12:29:03.350Z,8.27
2018-08-04T12:34:07.410Z,6.90
2018-08-04T12:39:12.139Z,7.10
2018-08-04T12:44:15.946Z,6.40
2018-08-04T12:49:19.565Z,5.57
2018-08-04T12:54:23.759Z,5.77
2018-08-04T12:59:27.544Z,5.03
2018-08-04T13:04:31.215Z,5.70
2018-08-04T13:09:34.917Z,5.37
2018-08-04T13:14:38.667Z,6.57
2018-08-04T13:19:43.015Z,6.47
2018-08-04T13:24:46.590Z,6.47
2018-08-04T13:29:50.151Z,5.70
2018-08-04T13:34:54.171Z,6.10
2018-08-04T13:40:06.306Z,6.20
2018-08-04T13:45:09.887Z,7.07
2018-08-04T13:50:13.434Z,6.30
2018-08-04T13:55:17.798Z,8.53
2018-08-04T14:00:21.350Z,8.00
2018-08-04T14:05:24.908Z,8.20
2018-08-04T14:10:28.444Z,7.60
2018-08-04T14:15:32.121Z,9.27
2018-08-04T14:20:40.687Z,8.70
2018-08-04T14:25:44.226Z,9.00
2018-08-04T14:30:47.885Z,8.57
2018-08-04T14:35:52.135Z,7.10
2018-08-04T14:40:56.097Z,8.20
2018-08-04T14:45:59.975Z,8.57
2018-08-04T14:51:03.697Z,8.40
2018-08-04T14:56:07.251Z,8.57
2018-08-04T15:01:10.791Z,9.80
2018-08-04T15:06:14.379Z,8.37
2018-08-04T15:11:18.731Z,9.40
2018-08-04T15:16:22.541Z,9.87
2018-08-04T15:21:26.364Z,10.83
2018-08-04T15:26:30.434Z,9.53
2018-08-04T15:31:34.389Z,9.20
2018-08-04T15:36:38.626Z,9.60
2018-08-04T15:41:42.511Z,9.13
2018-08-04T15:46:46.076Z,9.20
2018-08-04T15:51:49.620Z,9.30
2018-08-04T15:56:53.199Z,8.83
2018-08-04T16:01:56.737Z,8.30
2018-08-04T16:07:00.290Z,8.80
2018-08-04T16:12:04.507Z,8.90
2018-08-04T16:17:08.314Z,9.00
2018-08-04T16:22:11.859Z,9.00
2018-08-04T16:27:15.494Z,7.93
2018-08-04T16:32:19.026Z,8.60
2018-08-04T16:37:22.597Z,9.70
2018-08-04T16:42:26.167Z,8.07
2018-08-04T16:47:30.424Z,7.67
2018-08-04T16:52:34.085Z,8.07
2018-08-04T16:57:37.673Z,7.93
2018-08-04T17:02:42.146Z,8.70
2018-08-04T17:07:45.682Z,7.90
2018-08-04T17:12:49.224Z,8.00
2018-08-04T17:17:52.943Z,9.10
2018-08-04T17:22:56.543Z,9.63
2018-08-04T17:28:00.105Z,10.33
2018-08-04T17:33:03.662Z,10.13
2018-08-04T17:38:07.589Z,10.23
2018-08-04T17:43:11.762Z,10.00
2018-08-04T17:48:15.931Z,10.83
2018-08-04T17:53:19.504Z,9.97
2018-08-04T17:58:23.107Z,10.20
2018-08-04T18:03:31.012Z,10.83
2018-08-04T18:08:34.600Z,9.93
2018-08-04T18:13:38.323Z,10.70
2018-08-04T18:18:41.978Z,9.83
2018-08-04T18:23:46.061Z,10.20
2018-08-04T18:28:50.260Z,9.70
2018-08-04T18:33:54.740Z,11.27
2018-08-04T18:38:58.839Z,12.17
2018-08-04T18:44:03.037Z,13.83
2018-08-04T18:49:07.649Z,12.80
2018-08-04T18:54:12.468Z,13.63
2018-08-04T18:59:17.544Z,11.83
2018-08-04T19:04:22.989Z,12.63
2018-08-04T19:09:40.601Z,14.70
2018-08-04T19:14:44.827Z,14.50
2018-08-04T19:25:04.313Z,18.57
2018-08-04T19:30:13.473Z,16.97
2018-08-04T19:35:17.808Z,25.87
2018-08-04T19:40:21.725Z,18.63
2018-08-04T19:45:25.709Z,13.70
2018-08-04T19:50:30.561Z,13.70
2018-08-04T19:55:34.484Z,13.30
2018-08-04T20:00:38.824Z,13.07
2018-08-04T20:05:42.994Z,13.40
2018-08-04T20:10:47.347Z,11.80
2018-08-04T20:15:51.431Z,15.00
2018-08-04T20:21:21.872Z,18.70
2018-08-04T20:26:26.226Z,13.50
2018-08-04T20:31:30.262Z,12.17
2018-08-04T20:36:34.191Z,12.23
2018-08-04T20:41:38.626Z,12.77
2018-08-04T20:46:43.532Z,13.80
2018-08-04T20:51:47.822Z,13.00
2018-08-04T20:56:52.675Z,12.13
2018-08-04T21:02:02.440Z,12.50
2018-08-04T21:07:06.892Z,12.50
2018-08-04T21:12:12.808Z,13.93
2018-08-04T21:17:17.582Z,13.53
2018-08-04T21:22:24.358Z,13.83
2018-08-04T21:27:28.631Z,14.03
2018-08-04T21:32:32.833Z,14.70
2018-08-04T21:37:36.861Z,13.23
2018-08-04T21:42:42.998Z,14.40
2018-08-04T21:47:46.891Z,15.10
2018-08-04T21:52:50.801Z,14.17
2018-08-04T21:57:55.568Z,14.70
2018-08-04T22:03:03.727Z,13.67
2018-08-04T22:08:18.912Z,15.00
2018-08-04T22:13:24.080Z,15.80
2018-08-04T22:18:28.036Z,15.83
2018-08-04T22:23:32.446Z,14.50
2018-08-04T22:28:36.740Z,15.10
2018-08-04T22:33:41.221Z,14.93
2018-08-04T22:38:45.367Z,13.63
2018-08-04T22:43:49.411Z,14.60
2018-08-04T22:49:01.351Z,15.17
2018-08-04T22:54:05.447Z,16.50
2018-08-04T22:59:09.890Z,14.70
2018-08-04T23:04:14.782Z,15.17
2018-08-04T23:09:18.716Z,15.53
2018-08-04T23:14:22.705Z,16.17
2018-08-04T23:19:26.560Z,15.10
2018-08-04T23:24:31.213Z,15.00
2018-08-04T23:29:35.844Z,15.30
2018-08-04T23:34:40.169Z,15.60
2018-08-04T23:39:44.017Z,15.90
2018-08-04T23:44:48.826Z,17.17
2018-08-04T23:49:52.790Z,15.87
2018-08-04T23:54:57.223Z,15.87
